Time;durP1;ratioP1;P1;durP2;ratioP2;P2;SDS_P1;SDS_P2;PMS_P1;PMS_P2;Temp;Humidity;BMP_temperature;BMP_pressure;BME280_temperature;BME280_humidity;BME280_pressure;Samples;Min_cycle;Max_cycle;Signal;HPM_P1;HPM_P2
2022/03/02 05:00:59;;;;;;;12.37;8.53;;;0.00;99.90;;;;;;5711700;23;20521;-73
2022/03/02 05:03:26;;;;;;;12.70;9.03;;;0.00;99.90;;;;;;4954654;28;20464;-73
2022/03/02 05:05:53;;;;;;;14.60;9.53;;;0.00;99.90;;;;;;4954646;28;20823;-73
2022/03/02 05:08:20;;;;;;;13.00;9.23;;;0.00;99.90;;;;;;4954693;28;20856;-73
2022/03/02 05:10:47;;;;;;;13.63;8.33;;;-0.10;99.90;;;;;;4954540;28;20488;-73
2022/03/02 05:13:16;;;;;;;17.60;8.97;;;-0.10;99.90;;;;;;4954647;28;20483;-73
2022/03/02 05:15:43;;;;;;;18.20;10.00;;;-0.10;99.90;;;;;;4955104;28;20898;-73
2022/03/02 05:18:11;;;;;;;15.70;9.43;;;-0.10;99.90;;;;;;4954327;28;20449;-73
2022/03/02 05:20:38;;;;;;;14.07;9.77;;;-0.10;99.90;;;;;;4954023;28;20473;-73
2022/03/02 05:23:07;;;;;;;16.83;11.17;;;-0.10;99.90;;;;;;4954636;28;20468;-73
2022/03/02 05:25:34;;;;;;;19.63;12.33;;;-0.10;99.90;;;;;;4954490;28;20465;-73
2022/03/02 05:28:01;;;;;;;20.73;12.80;;;-0.10;99.90;;;;;;4954313;28;20492;-73
2022/03/02 05:30:28;;;;;;;18.53;11.97;;;-0.10;99.90;;;;;;4953741;28;20895;-73
2022/03/02 05:32:55;;;;;;;21.47;12.90;;;-0.10;99.90;;;;;;4954595;28;20496;-73
2022/03/02 05:35:23;;;;;;;18.07;11.97;;;-0.10;99.90;;;;;;4954418;28;20828;-73
2022/03/02 05:37:50;;;;;;;18.57;12.07;;;-0.10;99.90;;;;;;4954441;28;20450;-73
2022/03/02 05:40:18;;;;;;;17.27;11.47;;;-0.20;99.90;;;;;;4953849;28;20493;-73
2022/03/02 05:42:45;;;;;;;17.80;10.73;;;-0.20;99.90;;;;;;4954132;28;20500;-73
2022/03/02 05:45:12;;;;;;;19.17;11.23;;;-0.20;99.90;;;;;;4953947;28;20508;-73
2022/03/02 05:47:40;;;;;;;22.97;11.77;;;-0.20;99.90;;;;;;4953987;28;21076;-73
2022/03/02 05:50:09;;;;;;;15.30;10.30;;;-0.20;99.90;;;;;;4953774;28;20549;-73
2022/03/02 05:52:38;;;;;;;13.60;10.23;;;-0.20;99.90;;;;;;4954126;28;20467;-74
2022/03/02 05:55:06;;;;;;;16.40;10.93;;;-0.30;99.90;;;;;;4954099;28;20457;-73
2022/03/02 05:57:33;;;;;;;17.57;12.30;;;-0.30;99.90;;;;;;4953856;28;20492;-74
2022/03/02 05:59:59;;;;;;;13.30;9.50;;;-0.30;99.90;;;;;;4953660;28;20957;-74
2022/03/02 06:02:26;;;;;;;16.57;10.63;;;-0.30;99.90;;;;;;4953760;28;21064;-74
2022/03/02 06:04:53;;;;;;;17.23;10.43;;;-0.30;99.90;;;;;;4953952;28;20489;-74
2022/03/02 06:07:20;;;;;;;19.40;9.83;;;-0.40;99.90;;;;;;4953790;28;20504;-73
2022/03/02 06:09:49;;;;;;;16.50;10.43;;;-0.30;99.90;;;;;;4953554;28;20500;-74
2022/03/02 06:12:17;;;;;;;14.90;8.70;;;-0.30;99.90;;;;;;4953598;28;20510;-74
2022/03/02 06:14:45;;;;;;;13.77;8.97;;;-0.30;99.90;;;;;;4953970;28;20457;-74
2022/03/02 06:17:12;;;;;;;15.20;8.60;;;-0.30;99.90;;;;;;4952990;28;20464;-74
2022/03/02 06:19:40;;;;;;;14.20;9.53;;;-0.30;99.90;;;;;;4952296;28;20489;-74
2022/03/02 06:22:08;;;;;;;13.50;9.60;;;-0.30;99.90;;;;;;4953637;28;20509;-73
2022/03/02 06:24:35;;;;;;;16.03;9.10;;;-0.30;99.90;;;;;;4953557;28;20554;-73
2022/03/02 06:27:04;;;;;;;15.07;10.03;;;-0.30;99.90;;;;;;4953834;28;20461;-73
2022/03/02 06:29:31;;;;;;;14.80;8.63;;;-0.30;99.90;;;;;;4953410;28;20545;-73
2022/03/02 06:31:58;;;;;;;19.43;9.20;;;-0.30;99.90;;;;;;4953666;28;20513;-73
2022/03/02 06:34:24;;;;;;;18.10;10.03;;;-0.20;99.90;;;;;;4953684;28;20457;-73
2022/03/02 06:36:51;;;;;;;14.43;8.70;;;-0.30;99.90;;;;;;4953527;28;20457;-73
2022/03/02 06:39:20;;;;;;;14.83;9.03;;;-0.20;99.90;;;;;;4953196;28;20462;-73
2022/03/02 06:41:57;;;;;;;25.93;9.67;;;-0.20;99.90;;;;;;4953650;28;20585;-73
2022/03/02 06:44:31;;;;;;;16.53;9.23;;;-0.20;99.90;;;;;;4953661;28;20512;-73
2022/03/02 06:47:02;;;;;;;16.00;10.87;;;-0.10;99.90;;;;;;4954117;28;21153;-73
2022/03/02 06:49:35;;;;;;;17.57;9.93;;;-0.10;99.90;;;;;;4957002;28;20497;-73
2022/03/02 06:52:04;;;;;;;16.00;10.40;;;-0.10;99.90;;;;;;4957444;28;20894;-73
2022/03/02 06:54:33;;;;;;;15.33;9.50;;;0.00;99.90;;;;;;4957065;28;20556;-74
2022/03/02 06:57:02;;;;;;;11.00;8.50;;;0.00;99.90;;;;;;4957238;28;20453;-73
2022/03/02 06:59:37;;;;;;;16.03;9.50;;;0.00;99.90;;;;;;4956872;28;20496;-73
2022/03/02 07:02:05;;;;;;;30.57;14.80;;;0.00;99.90;;;;;;4956867;28;20925;-73
2022/03/02 07:04:40;;;;;;;29.73;16.03;;;0.00;99.90;;;;;;4957276;28;20920;-73
2022/03/02 07:07:07;;;;;;;21.87;11.47;;;-0.10;99.90;;;;;;4957089;28;20464;-73
2022/03/02 07:09:34;;;;;;;17.67;9.53;;;0.10;99.90;;;;;;4956726;28;20496;-73
2022/03/02 07:12:02;;;;;;;14.20;9.33;;;0.10;99.90;;;;;;4956767;28;20994;-73
2022/03/02 07:14:32;;;;;;;23.53;13.03;;;0.20;99.90;;;;;;4957082;28;20452;-74
2022/03/02 07:17:00;;;;;;;20.30;11.57;;;0.20;99.90;;;;;;4956710;28;20457;-73
2022/03/02 07:19:28;;;;;;;21.07;12.80;;;0.20;99.90;;;;;;4956656;28;20460;-73
2022/03/02 07:21:56;;;;;;;23.60;13.10;;;0.20;99.90;;;;;;4956733;28;20594;-73
2022/03/02 07:24:25;;;;;;;22.17;12.00;;;0.20;99.90;;;;;;4956542;28;20468;-73
2022/03/02 07:26:54;;;;;;;20.10;11.93;;;0.30;99.90;;;;;;4956520;28;20481;-73
2022/03/02 07:29:26;;;;;;;26.30;12.87;;;0.40;99.90;;;;;;4956127;28;20519;-73
2022/03/02 07:31:57;;;;;;;20.60;11.30;;;0.40;99.90;;;;;;4956473;28;20554;-73
2022/03/02 07:34:26;;;;;;;18.33;11.37;;;0.40;99.90;;;;;;4956516;28;20539;-73
2022/03/02 07:36:53;;;;;;;22.00;12.70;;;0.40;99.90;;;;;;4956588;28;20485;-73
2022/03/02 07:39:21;;;;;;;20.37;12.20;;;0.40;99.90;;;;;;4956099;28;20456;-73
2022/03/02 07:41:48;;;;;;;19.90;13.00;;;0.50;99.90;;;;;;4956073;28;21066;-74
2022/03/02 07:44:16;;;;;;;20.77;12.70;;;0.60;99.90;;;;;;4956189;28;20958;-73
2022/03/02 07:46:43;;;;;;;23.20;11.77;;;0.70;99.90;;;;;;4956438;28;20579;-73
2022/03/02 07:49:12;;;;;;;16.73;9.70;;;0.70;99.90;;;;;;4955791;28;20580;-73
2022/03/02 07:51:40;;;;;;;14.70;8.50;;;0.70;99.90;;;;;;4956179;28;20540;-73
2022/03/02 07:54:08;;;;;;;17.27;9.23;;;0.70;99.90;;;;;;4956305;28;20809;-73
2022/03/02 07:56:35;;;;;;;12.45;8.35;;;0.80;99.90;;;;;;4956450;28;20535;-74
2022/03/02 07:59:05;;;;;;;16.83;10.20;;;0.90;99.90;;;;;;4954723;28;20694;-73
2022/03/02 08:01:35;;;;;;;17.23;9.67;;;1.00;99.90;;;;;;4955964;28;20492;-73
2022/03/02 08:04:05;;;;;;;12.48;8.95;;;1.10;99.90;;;;;;4956255;28;20472;-74
2022/03/02 08:06:35;;;;;;;15.10;8.77;;;1.10;99.90;;;;;;4956080;28;20218;-73
2022/03/02 08:09:04;;;;;;;16.20;10.60;;;1.20;99.90;;;;;;4955514;28;20501;-73
2022/03/02 08:11:32;;;;;;;17.87;12.53;;;1.30;99.90;;;;;;4955869;28;20569;-74
2022/03/02 08:14:00;;;;;;;20.80;12.47;;;1.40;99.90;;;;;;4956093;28;20454;-73
2022/03/02 08:16:28;;;;;;;17.93;11.27;;;1.40;99.90;;;;;;4955657;28;20964;-74
2022/03/02 08:18:55;;;;;;;20.00;11.67;;;1.40;99.90;;;;;;4955625;28;20544;-74
2022/03/02 08:21:23;;;;;;;18.90;11.37;;;1.50;99.90;;;;;;4955410;28;20564;-73
2022/03/02 08:23:56;;;;;;;17.97;10.93;;;1.50;99.90;;;;;;4955746;28;20541;-72
2022/03/02 08:26:24;;;;;;;19.20;11.10;;;1.60;99.90;;;;;;4955769;28;20465;-72
2022/03/02 08:28:55;;;;;;;17.10;10.37;;;1.60;99.90;;;;;;4955608;28;20584;-72
2022/03/02 08:31:23;;;;;;;18.77;11.47;;;1.70;99.90;;;;;;4955254;28;20482;-75
2022/03/02 08:33:51;;;;;;;16.47;11.10;;;1.80;99.90;;;;;;4955494;28;20460;-73
2022/03/02 08:36:21;;;;;;;21.10;11.27;;;1.80;99.90;;;;;;4955627;28;20458;-73
2022/03/02 08:38:51;;;;;;;15.13;10.07;;;1.90;99.90;;;;;;4955432;28;20453;-77
2022/03/02 08:41:19;;;;;;;16.00;10.33;;;1.90;99.90;;;;;;4955269;28;20516;-73
2022/03/02 08:43:47;;;;;;;12.80;9.90;;;2.00;99.90;;;;;;4954983;28;20464;-73
2022/03/02 08:46:14;;;;;;;20.03;10.30;;;2.00;99.90;;;;;;4955097;28;20956;-73
2022/03/02 08:48:42;;;;;;;19.70;10.90;;;2.10;99.90;;;;;;4955163;28;20497;-73
2022/03/02 08:51:09;;;;;;;18.80;10.77;;;2.00;99.90;;;;;;4955117;28;20845;-73
2022/03/02 08:53:38;;;;;;;16.37;10.33;;;2.00;99.90;;;;;;4955237;28;20536;-73
2022/03/02 08:56:07;;;;;;;20.57;11.83;;;2.00;99.90;;;;;;4955113;28;20481;-73
2022/03/02 08:58:34;;;;;;;16.53;10.80;;;2.10;99.90;;;;;;4954898;28;20453;-74
2022/03/02 09:01:02;;;;;;;15.70;10.07;;;2.20;99.90;;;;;;4955392;28;20492;-74
2022/03/02 09:03:32;;;;;;;16.63;9.27;;;2.40;99.90;;;;;;4956449;28;20465;-74
2022/03/02 09:06:01;;;;;;;15.37;9.30;;;2.50;99.90;;;;;;4955364;28;20541;-74
2022/03/02 09:08:28;;;;;;;14.33;9.00;;;2.60;99.90;;;;;;4954685;28;20499;-74
2022/03/02 09:10:58;;;;;;;17.13;8.50;;;2.70;99.90;;;;;;4954198;28;20480;-74
2022/03/02 09:13:26;;;;;;;14.17;9.30;;;2.80;99.90;;;;;;4954685;28;20449;-74
2022/03/02 09:15:53;;;;;;;11.40;8.03;;;3.00;99.90;;;;;;4954738;28;20454;-74
2022/03/02 09:18:20;;;;;;;14.60;9.93;;;3.30;99.90;;;;;;4954624;28;20540;-74
2022/03/02 09:20:56;;;;;;;15.57;11.40;;;3.60;99.90;;;;;;4954421;28;20556;-74
2022/03/02 09:23:25;;;;;;;14.23;9.60;;;3.90;99.90;;;;;;4954466;28;21029;-75
2022/03/02 09:25:55;;;;;;;15.60;9.50;;;4.00;99.90;;;;;;4954363;28;20452;-75
2022/03/02 09:28:24;;;;;;;13.57;9.70;;;4.20;99.90;;;;;;4954503;28;20655;-75
2022/03/02 09:30:54;;;;;;;17.57;9.93;;;4.30;99.90;;;;;;4953800;28;20482;-75
2022/03/02 09:33:24;;;;;;;13.60;9.60;;;4.30;99.90;;;;;;4954520;28;20453;-75
2022/03/02 09:35:54;;;;;;;12.23;8.23;;;4.30;99.90;;;;;;4954584;28;20445;-75
2022/03/02 09:38:22;;;;;;;21.80;9.70;;;4.60;99.90;;;;;;4954160;28;20464;-75
2022/03/02 09:40:53;;;;;;;12.57;9.03;;;4.70;99.90;;;;;;4954185;28;20588;-75
2022/03/02 09:43:24;;;;;;;12.50;7.77;;;4.80;99.90;;;;;;4954463;28;20465;-75
2022/03/02 09:45:56;;;;;;;16.13;8.77;;;4.90;99.90;;;;;;4954160;28;21036;-75
2022/03/02 09:48:29;;;;;;;10.40;8.23;;;5.20;99.90;;;;;;4954028;28;20461;-75
2022/03/02 09:51:00;;;;;;;13.03;8.40;;;5.30;99.90;;;;;;4953671;28;20472;-74
2022/03/02 09:53:29;;;;;;;15.30;7.70;;;5.50;99.90;;;;;;4954231;28;20544;-74
2022/03/02 09:55:57;;;;;;;15.07;8.57;;;5.70;99.90;;;;;;4954207;28;20544;-74
2022/03/02 09:58:27;;;;;;;10.40;8.33;;;5.80;99.90;;;;;;4954145;28;20485;-74
2022/03/02 10:00:57;;;;;;;11.30;8.47;;;5.90;99.90;;;;;;4953716;28;20492;-74
2022/03/02 10:03:27;;;;;;;10.40;7.50;;;6.10;99.90;;;;;;4953800;28;20457;-74
2022/03/02 10:05:57;;;;;;;11.00;7.90;;;6.30;99.90;;;;;;4954144;28;20453;-74
2022/03/02 10:08:25;;;;;;;14.57;8.70;;;6.60;99.90;;;;;;4953902;28;20481;-74
2022/03/02 10:10:54;;;;;;;11.23;8.07;;;6.80;99.90;;;;;;4953820;28;20474;-74
2022/03/02 10:13:22;;;;;;;13.50;8.23;;;6.90;99.90;;;;;;4953853;28;20548;-74
2022/03/02 10:15:49;;;;;;;9.47;7.73;;;6.90;99.60;;;;;;4953778;28;20468;-74
2022/03/02 10:18:18;;;;;;;16.23;7.80;;;6.90;99.50;;;;;;4953802;28;20969;-74
2022/03/02 10:20:49;;;;;;;10.87;7.90;;;6.90;99.40;;;;;;4953405;28;20482;-74
2022/03/02 10:23:33;;;;;;;14.20;8.07;;;7.10;99.90;;;;;;4956796;28;20544;-74
2022/03/02 10:26:17;;;;;;;14.97;7.80;;;7.10;97.20;;;;;;4957701;28;20520;-74
2022/03/02 10:28:53;;;;;;;12.03;8.57;;;7.00;97.40;;;;;;4956581;28;20540;-74
2022/03/02 10:31:32;;;;;;;12.40;7.70;;;6.90;96.90;;;;;;4957472;28;20484;-74
2022/03/02 10:34:10;;;;;;;14.20;7.90;;;6.90;98.10;;;;;;4957650;28;20461;-74
2022/03/02 10:36:42;;;;;;;11.90;7.73;;;7.00;97.70;;;;;;4957434;28;20488;-75
2022/03/02 10:39:10;;;;;;;10.97;7.53;;;7.00;98.20;;;;;;4957590;28;20485;-73
2022/03/02 10:41:40;;;;;;;10.97;8.30;;;7.10;98.20;;;;;;4957282;28;20556;-73
2022/03/02 10:44:14;;;;;;;11.07;7.87;;;7.10;98.30;;;;;;4957430;28;20457;-73
2022/03/02 10:46:44;;;;;;;14.10;9.50;;;7.30;99.10;;;;;;4957011;28;20457;-74
2022/03/02 10:49:19;;;;;;;15.83;8.97;;;7.40;98.40;;;;;;4956742;28;21119;-74
2022/03/02 10:51:46;;;;;;;15.47;9.20;;;7.50;98.50;;;;;;4957024;28;20480;-74
2022/03/02 10:54:18;;;;;;;16.20;9.13;;;7.50;98.50;;;;;;4957228;28;20829;-75
2022/03/02 10:56:46;;;;;;;13.50;9.37;;;7.50;98.60;;;;;;4957137;28;20444;-74
2022/03/02 10:59:16;;;;;;;9.43;7.60;;;7.70;99.20;;;;;;4956901;28;20450;-74
2022/03/02 11:01:45;;;;;;;12.83;9.07;;;7.70;98.10;;;;;;4956987;28;20548;-74
2022/03/02 11:04:14;;;;;;;13.97;8.57;;;7.80;98.10;;;;;;4957153;28;20468;-75
2022/03/02 11:06:42;;;;;;;12.70;8.90;;;7.70;97.50;;;;;;4956971;28;20484;-74
2022/03/02 11:09:09;;;;;;;11.83;8.83;;;7.70;97.60;;;;;;4956590;28;21088;-74
2022/03/02 11:11:37;;;;;;;10.23;8.63;;;7.70;97.50;;;;;;4956829;28;20473;-74
2022/03/02 11:14:04;;;;;;;13.73;8.90;;;7.80;98.90;;;;;;4957027;28;20453;-74
2022/03/02 11:16:31;;;;;;;13.73;9.17;;;7.90;97.80;;;;;;4997766;23;21081;-78
2022/03/02 11:19:10;;;;;;;26.20;9.10;;;7.70;96.50;;;;;;4975970;28;20463;-78
2022/03/02 11:21:40;;;;;;;10.27;8.50;;;7.60;97.20;;;;;;4975933;28;20886;-78
2022/03/02 11:24:09;;;;;;;12.90;8.80;;;7.50;96.70;;;;;;4976065;28;20452;-78
2022/03/02 11:26:38;;;;;;;11.80;8.60;;;7.40;97.00;;;;;;4975878;28;21030;-78
2022/03/02 11:29:11;;;;;;;15.80;9.53;;;7.60;98.20;;;;;;4975471;28;21042;-78
2022/03/02 11:31:42;;;;;;;13.53;8.77;;;7.70;98.10;;;;;;4975977;28;20539;-78
2022/03/02 11:34:11;;;;;;;13.87;7.93;;;7.70;97.40;;;;;;4975769;28;20449;-78
2022/03/02 11:36:41;;;;;;;11.17;7.83;;;7.80;97.00;;;;;;4975692;28;20472;-78
2022/03/02 11:39:10;;;;;;;12.73;8.67;;;7.80;97.60;;;;;;4975339;28;20452;-78
2022/03/02 11:41:38;;;;;;;11.20;9.10;;;7.80;96.40;;;;;;4976066;28;20862;-78
2022/03/02 11:44:22;;;;;;;11.83;8.73;;;7.80;97.00;;;;;;4975724;28;20548;-78
2022/03/02 11:46:49;;;;;;;13.07;9.10;;;7.80;96.80;;;;;;4975562;28;20456;-78
2022/03/02 11:49:16;;;;;;;13.73;9.23;;;7.80;96.50;;;;;;4975255;28;20590;-78
2022/03/02 11:51:44;;;;;;;13.87;8.23;;;7.80;96.30;;;;;;4975663;28;20539;-78
2022/03/02 11:54:11;;;;;;;11.60;8.70;;;7.80;96.80;;;;;;4977492;28;20829;-78
2022/03/02 11:56:39;;;;;;;12.60;9.17;;;7.80;96.70;;;;;;4978124;28;20473;-78
2022/03/02 11:59:08;;;;;;;14.23;9.03;;;7.90;96.70;;;;;;4975908;28;20456;-78
2022/03/02 12:01:41;;;;;;;12.13;8.50;;;7.90;96.50;;;;;;4976065;28;20463;-78
2022/03/02 12:04:09;;;;;;;14.07;9.70;;;8.00;97.60;;;;;;4975282;28;20902;-78
2022/03/02 12:06:43;;;;;;;13.07;10.10;;;8.10;98.00;;;;;;4975468;28;20483;-78
2022/03/02 12:09:24;;;;;;;14.00;8.93;;;8.30;97.20;;;;;;4975800;28;20491;-78
2022/03/02 12:11:51;;;;;;;18.83;8.83;;;8.40;97.10;;;;;;4975265;28;20487;-78
2022/03/02 12:14:17;;;;;;;14.83;9.00;;;8.30;96.50;;;;;;4975236;28;20452;-78
2022/03/02 12:16:47;;;;;;;12.00;9.00;;;8.20;96.90;;;;;;4974789;28;20492;-78
2022/03/02 12:19:23;;;;;;;16.17;9.07;;;8.30;97.60;;;;;;4975022;28;20945;-78
2022/03/02 12:21:53;;;;;;;15.80;9.13;;;8.40;96.20;;;;;;4975778;28;20448;-78
2022/03/02 12:24:28;;;;;;;12.30;9.00;;;8.40;96.00;;;;;;4975271;28;20460;-78
2022/03/02 12:27:02;;;;;;;12.00;8.83;;;8.50;96.60;;;;;;4975386;28;20451;-78
2022/03/02 12:29:30;;;;;;;13.10;8.10;;;8.60;97.10;;;;;;4974753;28;20499;-78
2022/03/02 12:32:08;;;;;;;14.27;10.17;;;8.70;97.50;;;;;;4975228;28;20456;-78
2022/03/02 12:34:37;;;;;;;13.97;8.97;;;8.60;95.50;;;;;;4975138;28;20484;-78
2022/03/02 12:37:05;;;;;;;12.47;8.87;;;8.50;95.50;;;;;;4974901;28;20499;-78
2022/03/02 12:39:34;;;;;;;12.60;8.83;;;8.50;96.00;;;;;;4974546;28;20455;-78
2022/03/02 12:42:04;;;;;;;14.63;9.70;;;8.50;96.30;;;;;;4974933;28;20543;-78
2022/03/02 12:44:35;;;;;;;14.33;9.50;;;8.50;95.50;;;;;;4974035;28;20532;-78
2022/03/02 12:47:04;;;;;;;11.17;8.83;;;8.40;95.70;;;;;;4974824;28;20535;-78
2022/03/02 13:09:51;;;;;;;12.27;9.20;;;8.50;96.40;;;;;;4973919;28;20483;-78
2022/03/02 13:12:29;;;;;;;14.57;9.10;;;8.50;96.40;;;;;;4974701;28;20511;-78
2022/03/02 13:14:56;;;;;;;15.40;9.10;;;8.60;96.50;;;;;;4974064;28;20906;-78
2022/03/02 13:17:24;;;;;;;16.13;10.23;;;8.60;96.50;;;;;;4974218;28;20591;-78
2022/03/02 13:19:53;;;;;;;14.37;9.73;;;8.50;95.50;;;;;;4973603;28;21009;-78
2022/03/02 13:22:26;;;;;;;13.17;9.33;;;8.60;96.50;;;;;;4974871;28;20456;-79
2022/03/02 13:24:56;;;;;;;14.97;9.37;;;8.60;96.60;;;;;;4973929;28;20483;-78
2022/03/02 13:27:24;;;;;;;12.38;9.15;;;8.80;96.90;;;;;;4973937;28;21019;-79
2022/03/02 13:30:06;;;;;;;11.30;8.93;;;8.80;96.40;;;;;;4973237;28;20268;-78
2022/03/02 13:33:01;;;;;;;12.40;8.90;;;8.60;95.70;;;;;;4973718;28;20742;-78
2022/03/02 13:35:30;;;;;;;14.27;8.50;;;8.70;96.50;;;;;;4973694;28;20465;-78
2022/03/02 13:38:09;;;;;;;11.03;8.67;;;8.70;96.80;;;;;;4973437;28;20503;-78
2022/03/02 13:40:55;;;;;;;13.50;8.50;;;8.80;96.30;;;;;;4973532;28;20460;-78
2022/03/02 13:43:34;;;;;;;12.67;9.30;;;8.80;96.00;;;;;;4973595;28;20452;-79
2022/03/02 13:46:22;;;;;;;16.85;10.20;;;8.70;95.90;;;;;;4973337;28;20483;-78
2022/03/02 13:48:52;;;;;;;15.53;9.50;;;8.70;96.00;;;;;;4973451;28;20225;-79
2022/03/02 13:51:19;;;;;;;13.03;8.83;;;8.70;96.70;;;;;;4974442;28;20496;-79
2022/03/02 13:53:48;;;;;;;13.23;9.50;;;8.80;96.80;;;;;;4973595;28;20466;-78
2022/03/02 13:56:19;;;;;;;11.03;8.27;;;8.70;96.20;;;;;;4973246;28;20469;-78
2022/03/02 13:58:47;;;;;;;16.03;9.07;;;8.70;96.50;;;;;;4973047;28;20460;-78
2022/03/02 14:08:05;;;;;;;12.73;8.77;;;8.80;96.90;;;;;;4973229;28;20489;-78
2022/03/02 14:10:40;;;;;;;13.13;9.00;;;8.70;96.30;;;;;;4972961;28;20500;-78
2022/03/02 14:13:10;;;;;;;12.73;8.93;;;8.70;96.40;;;;;;4973257;28;20467;-78
2022/03/02 14:15:37;;;;;;;13.37;8.33;;;8.80;96.30;;;;;;4972786;28;21020;-79
2022/03/02 14:18:07;;;;;;;12.30;9.20;;;8.80;97.00;;;;;;4973227;28;20464;-78
2022/03/02 14:20:36;;;;;;;14.47;9.40;;;9.00;97.00;;;;;;4972855;28;20449;-78
2022/03/02 14:23:05;;;;;;;13.20;8.93;;;9.00;96.90;;;;;;4973047;28;20896;-76
2022/03/02 14:25:32;;;;;;;15.20;10.00;;;9.00;96.80;;;;;;4972688;28;20833;-79
2022/03/02 14:28:00;;;;;;;17.73;9.70;;;9.00;96.90;;;;;;4973270;28;20539;-78
2022/03/02 14:30:31;;;;;;;15.20;9.07;;;9.00;97.00;;;;;;4972670;28;21200;-78
2022/03/02 14:32:59;;;;;;;15.00;10.20;;;9.00;97.70;;;;;;4972943;28;20959;-78
2022/03/02 14:35:28;;;;;;;14.13;9.47;;;9.10;97.60;;;;;;4973144;28;20478;-79
2022/03/02 14:38:00;;;;;;;13.60;9.00;;;9.20;97.10;;;;;;4972866;28;20460;-78
2022/03/02 14:40:28;;;;;;;13.97;9.97;;;9.00;96.40;;;;;;4972439;28;20464;-78
2022/03/02 14:42:57;;;;;;;13.33;9.53;;;9.00;96.70;;;;;;4972942;28;20468;-78
2022/03/02 14:45:27;;;;;;;15.20;10.67;;;9.00;97.00;;;;;;4972789;28;20535;-79
2022/03/02 14:48:06;;;;;;;18.17;10.40;;;9.00;96.60;;;;;;4973225;28;20456;-78
2022/03/02 15:31:51;;;;;;;13.40;8.80;;;9.50;95.10;;;;;;4975565;28;20538;-78
2022/03/02 15:34:18;;;;;;;14.30;9.70;;;9.50;95.20;;;;;;4975930;28;20456;-78
2022/03/02 15:36:59;;;;;;;16.20;9.33;;;9.50;94.90;;;;;;4975765;28;21028;-78
2022/03/02 15:39:28;;;;;;;16.93;10.07;;;9.50;95.50;;;;;;4975657;28;20448;-79
2022/03/02 15:41:57;;;;;;;18.30;10.10;;;9.60;95.30;;;;;;4975791;28;20459;-79
2022/03/02 15:44:23;;;;;;;14.90;9.40;;;9.60;95.10;;;;;;4975443;28;20448;-78
2022/03/02 15:46:52;;;;;;;18.07;10.60;;;9.60;95.50;;;;;;4975527;28;20459;-78
2022/03/02 15:49:19;;;;;;;13.13;8.97;;;9.60;95.60;;;;;;4974982;28;20461;-78
2022/03/02 15:52:01;;;;;;;14.33;9.43;;;9.70;95.40;;;;;;4975567;28;20495;-78
2022/03/02 15:54:27;;;;;;;12.53;9.73;;;9.60;95.10;;;;;;4975637;28;20830;-78
2022/03/02 15:56:54;;;;;;;15.10;10.30;;;9.60;94.70;;;;;;4975494;28;20543;-78
2022/03/02 15:59:22;;;;;;;15.33;10.03;;;9.50;94.80;;;;;;4975307;28;20820;-79
2022/03/02 16:01:50;;;;;;;15.00;9.30;;;9.50;95.10;;;;;;4975201;28;20452;-78
2022/03/02 16:04:20;;;;;;;11.90;9.60;;;9.40;95.40;;;;;;4975592;28;20550;-78
2022/03/02 16:06:57;;;;;;;18.37;10.87;;;9.30;95.70;;;;;;4975026;28;20504;-78
2022/03/02 16:09:25;;;;;;;13.13;9.80;;;9.30;95.50;;;;;;4975096;28;20460;-78
2022/03/02 16:11:55;;;;;;;13.50;9.13;;;9.30;95.50;;;;;;4975021;28;20497;-78
2022/03/02 16:14:23;;;;;;;12.83;10.57;;;9.30;95.50;;;;;;4975311;28;20449;-77
2022/03/02 16:16:53;;;;;;;15.40;9.70;;;9.30;95.80;;;;;;4974973;28;20555;-78
2022/03/02 16:19:28;;;;;;;13.90;9.53;;;9.40;95.30;;;;;;4974331;28;20457;-78
2022/03/02 16:21:56;;;;;;;15.77;10.60;;;9.40;95.60;;;;;;4974936;28;20515;-78
2022/03/02 16:24:32;;;;;;;15.77;9.40;;;9.40;95.60;;;;;;4974695;28;20455;-78
2022/03/02 16:27:13;;;;;;;18.40;10.17;;;9.40;95.40;;;;;;4974803;28;20563;-78
2022/03/02 16:29:40;;;;;;;16.53;10.03;;;9.30;95.50;;;;;;4975732;28;20456;-78
2022/03/02 16:32:08;;;;;;;17.40;10.90;;;9.20;95.60;;;;;;4974812;28;20932;-78
2022/03/02 16:34:36;;;;;;;13.30;9.77;;;9.20;95.80;;;;;;4979805;28;20476;-78
2022/03/02 16:37:04;;;;;;;16.17;11.43;;;9.10;95.90;;;;;;4976401;28;20953;-78
2022/03/02 16:39:32;;;;;;;16.60;10.90;;;9.10;95.80;;;;;;4977513;28;20460;-79
2022/03/02 16:41:59;;;;;;;15.90;10.73;;;9.10;95.80;;;;;;4978376;28;20876;-78
2022/03/02 16:44:26;;;;;;;17.00;10.40;;;9.10;96.20;;;;;;4974663;28;20945;-77
2022/03/02 16:47:01;;;;;;;16.23;9.30;;;9.10;96.50;;;;;;4974919;28;20456;-77
2022/03/02 16:49:28;;;;;;;16.47;9.83;;;9.10;97.00;;;;;;4975205;28;20480;-78
2022/03/02 16:51:56;;;;;;;15.53;10.63;;;9.10;96.40;;;;;;4974882;28;21007;-78
2022/03/02 16:54:23;;;;;;;13.77;10.60;;;9.00;96.20;;;;;;4974875;28;20468;-78
2022/03/02 16:56:50;;;;;;;17.37;10.40;;;9.00;96.40;;;;;;4975493;28;20472;-78
2022/03/02 16:59:18;;;;;;;14.97;10.20;;;9.00;96.10;;;;;;4976667;28;20463;-79
2022/03/02 17:01:45;;;;;;;13.73;10.40;;;9.00;96.70;;;;;;4977423;28;20452;-79
2022/03/02 17:04:12;;;;;;;20.83;11.30;;;9.00;96.90;;;;;;4979123;28;20536;-78
2022/03/02 17:06:48;;;;;;;13.87;10.20;;;9.00;96.70;;;;;;4974775;28;20500;-78
2022/03/02 17:09:18;;;;;;;20.30;12.33;;;9.00;96.00;;;;;;4974799;28;20462;-78
2022/03/02 17:11:45;;;;;;;18.30;11.10;;;8.90;96.40;;;;;;4967144;28;21019;-78
2022/03/02 17:14:19;;;;;;;17.27;12.17;;;8.90;96.50;;;;;;4965549;28;20456;-78
2022/03/02 17:16:48;;;;;;;16.00;11.33;;;8.80;96.60;;;;;;4968875;28;20476;-78
2022/03/02 17:19:14;;;;;;;18.20;12.87;;;8.80;97.00;;;;;;4969605;28;20463;-78
2022/03/02 17:21:44;;;;;;;16.50;11.30;;;8.80;97.00;;;;;;4980966;23;20890;-74
2022/03/02 17:24:11;;;;;;;20.03;12.67;;;8.80;96.80;;;;;;4953607;29;20462;-74
2022/03/02 17:26:39;;;;;;;16.57;11.80;;;8.70;96.70;;;;;;4954423;28;20468;-75
2022/03/02 17:29:08;;;;;;;19.53;12.00;;;8.70;97.30;;;;;;4954195;28;20461;-75
2022/03/02 17:31:35;;;;;;;17.90;12.60;;;8.70;97.50;;;;;;4954444;28;21175;-74
2022/03/02 17:34:03;;;;;;;20.30;12.30;;;8.70;97.60;;;;;;4935514;29;20458;-74
2022/03/02 17:36:32;;;;;;;16.73;10.93;;;8.60;97.00;;;;;;4934824;29;20561;-74
2022/03/02 17:39:00;;;;;;;17.63;10.60;;;8.60;97.10;;;;;;4935287;29;20457;-75
2022/03/02 17:41:28;;;;;;;15.20;10.10;;;8.50;97.40;;;;;;4935192;29;20497;-75
2022/03/02 17:43:57;;;;;;;17.35;11.13;;;8.50;97.50;;;;;;4934885;29;20477;-74
2022/03/02 17:46:25;;;;;;;19.53;11.73;;;8.50;97.60;;;;;;4934896;29;20215;-75
2022/03/02 17:48:52;;;;;;;18.03;11.57;;;8.40;97.90;;;;;;4934790;29;20454;-75
2022/03/02 17:51:20;;;;;;;17.03;12.50;;;8.40;98.40;;;;;;4934939;29;20945;-75
2022/03/02 17:53:47;;;;;;;21.90;13.90;;;8.40;98.50;;;;;;4934940;29;20459;-75
2022/03/02 17:56:14;;;;;;;31.77;17.13;;;8.40;98.50;;;;;;4935131;29;20447;-75
2022/03/02 17:58:41;;;;;;;31.40;17.90;;;8.40;98.30;;;;;;4934667;29;20458;-75
2022/03/02 18:01:10;;;;;;;30.60;16.60;;;8.30;98.40;;;;;;4934971;29;20947;-75
2022/03/02 18:03:37;;;;;;;37.13;20.97;;;8.30;98.50;;;;;;4934881;29;20507;-76
2022/03/02 18:06:04;;;;;;;30.13;18.00;;;8.20;98.30;;;;;;4934905;29;20474;-75
2022/03/02 18:08:31;;;;;;;27.43;16.60;;;8.20;98.50;;;;;;4934708;29;20458;-76
2022/03/02 18:10:58;;;;;;;26.80;14.50;;;8.20;98.80;;;;;;4934047;29;20986;-76
2022/03/02 18:13:25;;;;;;;19.20;12.73;;;8.20;98.90;;;;;;4934679;29;20474;-75
2022/03/02 18:15:52;;;;;;;15.70;11.80;;;8.10;98.90;;;;;;4934895;29;20475;-75
2022/03/02 18:18:21;;;;;;;15.87;10.70;;;8.10;98.30;;;;;;4934750;29;20513;-76
2022/03/02 18:20:49;;;;;;;16.83;11.20;;;8.10;98.50;;;;;;4934526;29;20530;-76
2022/03/02 18:23:17;;;;;;;14.03;10.80;;;8.00;98.50;;;;;;4934402;29;20524;-75
2022/03/02 18:25:45;;;;;;;14.23;10.70;;;8.00;98.60;;;;;;4934544;29;20478;-76
2022/03/02 18:28:12;;;;;;;17.63;11.57;;;8.00;98.80;;;;;;4934835;29;20534;-75
2022/03/02 18:30:39;;;;;;;16.30;11.40;;;7.90;98.10;;;;;;4934149;29;21077;-76
2022/03/02 18:33:06;;;;;;;15.50;10.90;;;7.90;98.70;;;;;;4934630;29;20474;-75
2022/03/02 18:35:34;;;;;;;15.90;11.70;;;7.90;98.60;;;;;;4934628;29;20478;-75
2022/03/02 18:38:04;;;;;;;19.73;12.10;;;7.90;98.80;;;;;;4934485;29;20458;-75
2022/03/02 18:40:31;;;;;;;22.27;12.50;;;7.80;98.80;;;;;;4925961;29;20494;-75
2022/03/02 18:42:58;;;;;;;15.47;10.90;;;7.80;98.40;;;;;;4916240;29;20531;-75
2022/03/02 18:45:29;;;;;;;14.87;11.30;;;7.80;98.60;;;;;;4919458;29;20541;-75
2022/03/02 18:47:56;;;;;;;20.57;12.70;;;7.80;99.10;;;;;;4919518;29;20561;-76
2022/03/02 18:50:26;;;;;;;18.97;11.97;;;7.80;98.80;;;;;;4918856;29;20985;-76
2022/03/02 18:52:55;;;;;;;18.87;13.80;;;7.70;99.00;;;;;;4918890;29;20865;-75
2022/03/02 18:55:22;;;;;;;19.03;13.30;;;7.70;98.90;;;;;;4919254;29;20461;-75
2022/03/02 18:57:49;;;;;;;19.80;13.97;;;7.70;99.50;;;;;;4919187;29;20970;-76
2022/03/02 19:00:16;;;;;;;21.90;14.77;;;7.70;99.10;;;;;;4918995;29;20544;-76